Time;durP1;ratioP1;P1;durP2;ratioP2;P2;SDS_P1;SDS_P2;PMS_P1;PMS_P2;Temp;Humidity;BMP_temperature;BMP_pressure;BME280_temperature;BME280_humidity;BME280_pressure;Samples;Min_cycle;Max_cycle;Signal;HPM_P1;HPM_P2
2021/07/05 00:01:45;;;;;;;;;;;22.20;57.10;;;;;;516315;230;1155;-73
2021/07/05 00:03:46;;;;;;;;;;;22.20;57.10;;;;;;516330;230;2176;-73
2021/07/05 00:05:48;;;;;;;;;;;22.20;57.00;;;;;;516312;231;1009;-73
2021/07/05 00:07:49;;;;;;;;;;;22.20;57.00;;;;;;516312;231;1180;-73
2021/07/05 00:09:50;;;;;;;;;;;22.20;57.00;;;;;;516359;231;1146;-73
2021/07/05 00:11:52;;;;;;;;;;;22.20;57.00;;;;;;516346;230;1140;-73
2021/07/05 00:13:53;;;;;;;;;;;22.20;57.00;;;;;;516363;231;948;-73
2021/07/05 00:15:55;;;;;;;;;;;22.20;56.80;;;;;;516400;230;918;-73
2021/07/05 00:17:56;;;;;;;;;;;22.20;56.90;;;;;;516337;230;952;-73
2021/07/05 00:19:59;;;;;;;;;;;22.20;56.70;;;;;;516338;230;1101;-73
2021/07/05 00:21:59;;;;;;;;;;;22.30;56.60;;;;;;516270;230;1213;-73
2021/07/05 00:24:00;;;;;;;;;;;22.40;56.40;;;;;;516368;230;2168;-73
2021/07/05 00:26:02;;;;;;;;;;;22.30;56.30;;;;;;516330;230;1157;-73
2021/07/05 00:28:03;;;;;;;;;;;22.40;56.30;;;;;;516316;231;925;-73
2021/07/05 00:30:04;;;;;;;;;;;22.40;56.20;;;;;;516341;231;927;-73
2021/07/05 00:32:06;;;;;;;;;;;22.60;55.90;;;;;;516320;230;956;-73
2021/07/05 00:34:07;;;;;;;;;;;22.60;55.80;;;;;;516324;230;928;-73
2021/07/05 00:36:08;;;;;;;;;;;22.60;55.80;;;;;;516333;231;1032;-73
2021/07/05 00:38:10;;;;;;;;;;;22.60;55.70;;;;;;516411;230;1128;-73
2021/07/05 00:40:11;;;;;;;;;;;22.60;55.80;;;;;;516334;230;1120;-73
2021/07/05 00:42:12;;;;;;;;;;;22.60;55.60;;;;;;516310;230;1178;-73
2021/07/05 00:44:14;;;;;;;;;;;22.60;55.80;;;;;;516279;230;2137;-73
2021/07/05 00:46:15;;;;;;;;;;;22.50;55.80;;;;;;516228;231;1108;-73
2021/07/05 00:48:16;;;;;;;;;;;22.60;55.80;;;;;;516200;231;1075;-73
2021/07/05 00:50:18;;;;;;;;;;;22.50;55.80;;;;;;516318;231;1093;-73
2021/07/05 00:52:19;;;;;;;;;;;22.60;55.70;;;;;;516331;231;1301;-73
2021/07/05 00:54:20;;;;;;;;;;;22.50;55.80;;;;;;516453;230;939;-73
2021/07/05 00:56:22;;;;;;;;;;;22.50;55.70;;;;;;516347;231;1169;-73
2021/07/05 00:58:23;;;;;;;;;;;22.60;55.70;;;;;;516472;230;1034;-73
2021/07/05 01:00:24;;;;;;;;;;;22.60;55.50;;;;;;516344;230;1093;-73
2021/07/05 01:02:26;;;;;;;;;;;22.60;55.60;;;;;;516312;231;1091;-73
2021/07/05 01:04:27;;;;;;;;;;;22.60;55.60;;;;;;516387;230;2184;-73
2021/07/05 01:06:28;;;;;;;;;;;22.60;55.60;;;;;;516316;231;992;-73
2021/07/05 01:08:30;;;;;;;;;;;22.60;55.60;;;;;;516356;230;924;-73
2021/07/05 01:10:31;;;;;;;;;;;22.70;55.50;;;;;;516322;231;1149;-72
2021/07/05 01:12:33;;;;;;;;;;;22.60;55.50;;;;;;516360;230;1098;-72
2021/07/05 01:14:34;;;;;;;;;;;22.60;55.40;;;;;;516253;231;1380;-72
2021/07/05 01:16:35;;;;;;;;;;;22.70;55.20;;;;;;516276;230;979;-72
2021/07/05 01:18:36;;;;;;;;;;;22.70;55.10;;;;;;516317;230;957;-73
2021/07/05 01:20:38;;;;;;;;;;;22.70;55.40;;;;;;516301;231;1076;-73
2021/07/05 01:22:39;;;;;;;;;;;22.70;55.30;;;;;;516297;231;968;-73
2021/07/05 01:24:40;;;;;;;;;;;22.70;55.30;;;;;;516272;231;2125;-73
2021/07/05 01:26:42;;;;;;;;;;;22.70;55.20;;;;;;516282;230;1144;-73
2021/07/05 01:28:43;;;;;;;;;;;22.70;55.20;;;;;;516320;230;1104;-74
2021/07/05 01:30:44;;;;;;;;;;;22.70;55.20;;;;;;516341;230;966;-73
2021/07/05 01:32:46;;;;;;;;;;;22.90;54.80;;;;;;516365;230;1110;-73
2021/07/05 01:34:47;;;;;;;;;;;22.80;54.70;;;;;;516307;230;1020;-73
2021/07/05 01:36:48;;;;;;;;;;;22.80;54.80;;;;;;516281;231;934;-73
2021/07/05 01:38:51;;;;;;;;;;;22.80;54.90;;;;;;516335;230;948;-72
2021/07/05 01:40:51;;;;;;;;;;;22.70;55.00;;;;;;516134;230;1507;-73
2021/07/05 01:42:52;;;;;;;;;;;22.70;55.00;;;;;;516366;230;1130;-73
2021/07/05 01:44:54;;;;;;;;;;;22.70;55.00;;;;;;516292;230;2168;-73
2021/07/05 01:46:55;;;;;;;;;;;22.70;55.10;;;;;;516250;231;1139;-73
2021/07/05 01:48:56;;;;;;;;;;;22.60;55.20;;;;;;516275;231;961;-73
2021/07/05 01:50:58;;;;;;;;;;;22.70;55.20;;;;;;516243;230;957;-73
2021/07/05 01:52:59;;;;;;;;;;;22.70;55.20;;;;;;516273;230;1082;-73
2021/07/05 01:55:00;;;;;;;;;;;22.70;55.00;;;;;;516341;230;991;-73
2021/07/05 01:57:02;;;;;;;;;;;22.70;55.20;;;;;;516280;231;1287;-73
2021/07/05 01:59:03;;;;;;;;;;;22.60;55.20;;;;;;516399;230;1076;-73
2021/07/05 02:01:04;;;;;;;;;;;22.70;55.10;;;;;;516251;230;1176;-73
2021/07/05 02:03:05;;;;;;;;;;;22.70;55.10;;;;;;516298;230;1040;-73
2021/07/05 02:05:07;;;;;;;;;;;22.70;55.10;;;;;;516262;231;2184;-73
2021/07/05 02:07:08;;;;;;;;;;;22.70;55.10;;;;;;516205;230;935;-73
2021/07/05 02:09:09;;;;;;;;;;;22.70;55.10;;;;;;516369;230;958;-73
2021/07/05 02:11:11;;;;;;;;;;;22.70;55.00;;;;;;516342;230;1116;-73
2021/07/05 02:13:12;;;;;;;;;;;22.70;55.00;;;;;;516367;230;1106;-73
2021/07/05 02:15:13;;;;;;;;;;;22.70;55.10;;;;;;516270;230;1062;-73
2021/07/05 02:17:15;;;;;;;;;;;22.70;55.00;;;;;;516257;231;1018;-73
2021/07/05 02:19:17;;;;;;;;;;;22.70;55.00;;;;;;516286;231;1040;-73
2021/07/05 02:21:17;;;;;;;;;;;22.70;54.80;;;;;;516268;231;1517;-73
2021/07/05 02:23:19;;;;;;;;;;;22.70;54.90;;;;;;516338;231;925;-73
2021/07/05 02:25:20;;;;;;;;;;;22.70;54.90;;;;;;516373;230;2121;-73
2021/07/05 02:27:21;;;;;;;;;;;22.70;55.00;;;;;;516332;230;1182;-73
2021/07/05 02:29:23;;;;;;;;;;;22.70;54.90;;;;;;516469;230;914;-73
2021/07/05 02:31:24;;;;;;;;;;;22.60;55.00;;;;;;516274;230;1175;-73
2021/07/05 02:33:25;;;;;;;;;;;22.70;54.60;;;;;;516368;231;929;-73
2021/07/05 02:35:27;;;;;;;;;;;22.70;54.80;;;;;;516321;230;1028;-73
2021/07/05 02:37:28;;;;;;;;;;;22.70;54.90;;;;;;516255;231;1008;-73
2021/07/05 02:39:30;;;;;;;;;;;22.70;54.90;;;;;;516391;230;1015;-73
2021/07/05 02:41:31;;;;;;;;;;;22.70;54.90;;;;;;516285;230;1209;-73
2021/07/05 02:43:32;;;;;;;;;;;22.70;55.00;;;;;;516306;231;1021;-73
2021/07/05 02:45:34;;;;;;;;;;;22.70;55.00;;;;;;516347;230;2200;-73
2021/07/05 02:47:35;;;;;;;;;;;22.70;54.90;;;;;;516365;230;1147;-73
2021/07/05 02:49:36;;;;;;;;;;;22.70;54.90;;;;;;516284;231;1023;-73
2021/07/05 02:51:38;;;;;;;;;;;22.70;54.80;;;;;;516306;230;1047;-73
2021/07/05 02:53:39;;;;;;;;;;;22.70;54.90;;;;;;516345;231;931;-73
2021/07/05 02:55:40;;;;;;;;;;;22.70;54.90;;;;;;516335;230;972;-73
2021/07/05 02:57:43;;;;;;;;;;;22.70;55.00;;;;;;516361;230;1191;-73
2021/07/05 02:59:44;;;;;;;;;;;22.70;55.10;;;;;;516402;230;1293;-73
2021/07/05 03:01:46;;;;;;;;;;;22.70;55.10;;;;;;516241;231;972;-73
2021/07/05 03:03:47;;;;;;;;;;;22.70;55.00;;;;;;516387;230;923;-73
2021/07/05 03:05:48;;;;;;;;;;;22.60;55.10;;;;;;516357;231;2094;-73
2021/07/05 03:07:50;;;;;;;;;;;22.70;55.10;;;;;;516322;231;1034;-73
2021/07/05 03:09:51;;;;;;;;;;;22.70;55.10;;;;;;516340;230;1066;-73
2021/07/05 03:11:52;;;;;;;;;;;22.70;54.90;;;;;;516218;230;1167;-73
2021/07/05 03:13:54;;;;;;;;;;;22.70;54.80;;;;;;516320;231;1033;-73
2021/07/05 03:15:55;;;;;;;;;;;22.70;54.80;;;;;;516272;230;917;-73
2021/07/05 03:17:57;;;;;;;;;;;22.80;54.60;;;;;;516215;231;966;-73
2021/07/05 03:19:58;;;;;;;;;;;22.70;54.70;;;;;;516439;230;1029;-73
2021/07/05 03:21:59;;;;;;;;;;;22.80;54.90;;;;;;516303;231;1195;-73
2021/07/05 03:24:00;;;;;;;;;;;22.80;54.80;;;;;;516405;231;2188;-73
2021/07/05 03:26:02;;;;;;;;;;;22.70;55.00;;;;;;516346;230;1223;-73
2021/07/05 03:28:03;;;;;;;;;;;22.70;55.10;;;;;;516334;231;1196;-73
2021/07/05 03:30:04;;;;;;;;;;;22.70;55.10;;;;;;516355;230;929;-73
2021/07/05 03:32:06;;;;;;;;;;;22.80;54.80;;;;;;516284;231;1172;-73
2021/07/05 03:34:07;;;;;;;;;;;22.80;54.70;;;;;;516329;231;910;-73
2021/07/05 03:36:08;;;;;;;;;;;22.70;54.80;;;;;;516281;231;1208;-73
2021/07/05 03:38:10;;;;;;;;;;;22.80;54.90;;;;;;516391;230;1055;-73
2021/07/05 03:40:11;;;;;;;;;;;22.70;54.90;;;;;;516324;231;993;-73
2021/07/05 03:42:12;;;;;;;;;;;22.70;54.90;;;;;;513482;230;1332;-73
2021/07/05 03:44:14;;;;;;;;;;;22.70;55.00;;;;;;510822;232;2134;-73
2021/07/05 03:46:15;;;;;;;;;;;22.70;54.90;;;;;;514703;231;984;-73
2021/07/05 03:48:17;;;;;;;;;;;22.70;54.90;;;;;;514818;231;945;-73
2021/07/05 03:50:18;;;;;;;;;;;22.80;54.90;;;;;;514784;231;1415;-73
2021/07/05 03:52:20;;;;;;;;;;;22.80;54.90;;;;;;515892;231;1043;-73
2021/07/05 03:54:21;;;;;;;;;;;22.70;54.90;;;;;;516385;231;1022;-73
2021/07/05 03:56:22;;;;;;;;;;;22.80;54.90;;;;;;516311;230;1079;-73
2021/07/05 03:58:23;;;;;;;;;;;22.70;55.00;;;;;;516447;230;1144;-73
2021/07/05 04:00:25;;;;;;;;;;;22.70;54.90;;;;;;516350;230;977;-73
2021/07/05 04:02:26;;;;;;;;;;;22.70;55.00;;;;;;516294;230;1135;-73
2021/07/05 04:04:27;;;;;;;;;;;22.70;54.90;;;;;;516331;230;2228;-73
2021/07/05 04:06:29;;;;;;;;;;;22.70;55.00;;;;;;516251;231;905;-73
2021/07/05 04:08:33;;;;;;;;;;;22.70;55.10;;;;;;516272;230;1019;-73
2021/07/05 04:10:32;;;;;;;;;;;22.70;54.90;;;;;;516111;230;2071;-73
2021/07/05 04:12:34;;;;;;;;;;;22.70;54.90;;;;;;516204;230;1220;-73
2021/07/05 04:14:35;;;;;;;;;;;22.70;54.90;;;;;;516248;231;1061;-73
2021/07/05 04:16:36;;;;;;;;;;;22.70;54.90;;;;;;516113;230;1166;-73
2021/07/05 04:18:37;;;;;;;;;;;22.70;54.90;;;;;;516178;230;1042;-73
2021/07/05 04:20:39;;;;;;;;;;;22.70;54.90;;;;;;516221;231;1040;-73
2021/07/05 04:22:40;;;;;;;;;;;22.70;54.80;;;;;;516168;230;1089;-73
2021/07/05 04:24:41;;;;;;;;;;;22.70;54.80;;;;;;516239;230;2161;-73
2021/07/05 04:26:43;;;;;;;;;;;22.60;55.00;;;;;;516162;230;1032;-73
2021/07/05 04:28:44;;;;;;;;;;;22.60;54.90;;;;;;516182;231;1261;-73
2021/07/05 04:30:45;;;;;;;;;;;22.70;54.90;;;;;;516176;230;1219;-73
2021/07/05 04:32:47;;;;;;;;;;;22.80;54.60;;;;;;516032;231;1130;-73
2021/07/05 04:34:48;;;;;;;;;;;22.70;54.70;;;;;;516037;230;1117;-73
2021/07/05 04:36:50;;;;;;;;;;;22.70;54.80;;;;;;516005;231;1048;-73
2021/07/05 04:38:51;;;;;;;;;;;22.70;55.00;;;;;;516178;230;977;-73
2021/07/05 04:40:53;;;;;;;;;;;22.70;55.00;;;;;;516140;231;1010;-73
2021/07/05 04:42:54;;;;;;;;;;;22.60;55.10;;;;;;516062;230;1445;-73
2021/07/05 04:44:55;;;;;;;;;;;22.70;55.00;;;;;;516055;230;2169;-73
2021/07/05 04:46:56;;;;;;;;;;;22.70;55.00;;;;;;516027;231;1042;-73
2021/07/05 04:48:58;;;;;;;;;;;22.60;54.90;;;;;;515984;230;993;-73
2021/07/05 04:50:59;;;;;;;;;;;22.70;54.90;;;;;;516048;230;992;-73
2021/07/05 04:53:00;;;;;;;;;;;22.60;55.00;;;;;;516033;231;1018;-73
2021/07/05 04:55:02;;;;;;;;;;;22.60;55.00;;;;;;516021;231;961;-73
2021/07/05 04:57:03;;;;;;;;;;;22.70;54.80;;;;;;516057;231;994;-73
2021/07/05 04:59:04;;;;;;;;;;;22.60;55.10;;;;;;516080;230;1149;-73
2021/07/05 05:01:07;;;;;;;;;;;22.60;55.20;;;;;;515983;230;1154;-73
2021/07/05 05:03:09;;;;;;;;;;;22.50;55.40;;;;;;515908;231;1219;-73
2021/07/05 05:05:10;;;;;;;;;;;22.50;55.40;;;;;;516087;230;2161;-73
2021/07/05 05:07:11;;;;;;;;;;;22.60;55.30;;;;;;515956;230;1209;-73
2021/07/05 05:09:13;;;;;;;;;;;22.50;55.40;;;;;;516034;230;1180;-73
2021/07/05 05:11:14;;;;;;;;;;;22.50;55.30;;;;;;515816;231;1046;-73
2021/07/05 05:13:15;;;;;;;;;;;22.50;55.40;;;;;;515892;230;1125;-73
2021/07/05 05:15:17;;;;;;;;;;;22.60;55.40;;;;;;515928;230;1042;-73
2021/07/05 05:17:18;;;;;;;;;;;22.70;55.00;;;;;;515949;230;1306;-73
2021/07/05 05:19:19;;;;;;;;;;;22.60;55.20;;;;;;515954;231;1177;-73
2021/07/05 05:21:20;;;;;;;;;;;22.60;55.30;;;;;;515851;230;1034;-73
2021/07/05 05:23:22;;;;;;;;;;;22.60;55.40;;;;;;515884;231;1049;-73
2021/07/05 05:25:23;;;;;;;;;;;22.60;55.40;;;;;;515874;230;2224;-73
2021/07/05 05:27:25;;;;;;;;;;;22.60;55.30;;;;;;515835;231;1066;-73
2021/07/05 05:29:26;;;;;;;;;;;22.60;55.30;;;;;;515942;230;1285;-73
2021/07/05 05:31:27;;;;;;;;;;;22.50;55.30;;;;;;515868;230;1164;-73
2021/07/05 05:33:29;;;;;;;;;;;22.60;55.40;;;;;;515887;230;1135;-73
2021/07/05 05:35:30;;;;;;;;;;;22.60;55.50;;;;;;515834;230;957;-73
2021/07/05 05:37:31;;;;;;;;;;;22.60;55.50;;;;;;515788;230;1005;-73
2021/07/05 05:39:33;;;;;;;;;;;22.60;55.40;;;;;;515861;230;1024;-73
2021/07/05 05:41:34;;;;;;;;;;;22.60;55.40;;;;;;515821;231;1064;-73
2021/07/05 05:43:35;;;;;;;;;;;22.60;55.40;;;;;;515790;231;1151;-73
2021/07/05 05:45:37;;;;;;;;;;;22.60;55.60;;;;;;515689;230;2126;-73
2021/07/05 05:47:38;;;;;;;;;;;22.60;55.90;;;;;;515714;231;1043;-73
2021/07/05 05:49:39;;;;;;;;;;;22.60;56.00;;;;;;515805;230;957;-73
2021/07/05 05:51:41;;;;;;;;;;;22.60;56.30;;;;;;515813;230;1023;-73
2021/07/05 05:53:43;;;;;;;;;;;22.60;56.40;;;;;;515761;230;951;-73
2021/07/05 05:55:46;;;;;;;;;;;22.60;56.50;;;;;;515804;230;1271;-73
2021/07/05 05:57:45;;;;;;;;;;;22.50;56.60;;;;;;515548;230;1208;-73
2021/07/05 05:59:46;;;;;;;;;;;22.50;56.70;;;;;;515794;231;1374;-72
2021/07/05 06:01:49;;;;;;;;;;;22.40;56.70;;;;;;515617;230;1179;-73
2021/07/05 06:03:51;;;;;;;;;;;22.50;56.80;;;;;;515718;230;1445;-73
2021/07/05 06:05:51;;;;;;;;;;;22.50;56.70;;;;;;515690;230;2169;-73
2021/07/05 06:07:53;;;;;;;;;;;22.50;56.70;;;;;;515722;231;1209;-73
2021/07/05 06:09:54;;;;;;;;;;;22.40;56.60;;;;;;515646;231;1016;-73
2021/07/05 06:11:55;;;;;;;;;;;22.50;56.60;;;;;;515637;231;1078;-73
2021/07/05 06:13:57;;;;;;;;;;;22.40;56.50;;;;;;515776;230;1103;-73
2021/07/05 06:15:58;;;;;;;;;;;22.50;56.40;;;;;;515630;230;1000;-73
2021/07/05 06:17:59;;;;;;;;;;;22.40;56.60;;;;;;515638;231;1057;-73
2021/07/05 06:20:01;;;;;;;;;;;22.40;56.70;;;;;;515600;230;1080;-73
2021/07/05 06:22:02;;;;;;;;;;;22.30;56.60;;;;;;515616;230;1038;-73
2021/07/05 06:24:03;;;;;;;;;;;22.30;56.70;;;;;;515659;230;1171;-73
2021/07/05 06:26:05;;;;;;;;;;;22.30;56.80;;;;;;515721;230;2125;-73
2021/07/05 06:28:06;;;;;;;;;;;22.30;56.70;;;;;;515736;231;1088;-73
2021/07/05 06:30:07;;;;;;;;;;;22.30;56.60;;;;;;515702;231;1149;-73
2021/07/05 06:32:09;;;;;;;;;;;22.40;56.50;;;;;;515661;231;1226;-73
2021/07/05 06:34:10;;;;;;;;;;;22.40;56.40;;;;;;515809;230;1133;-73
2021/07/05 06:36:12;;;;;;;;;;;22.40;56.40;;;;;;515593;230;1400;-73
2021/07/05 06:38:13;;;;;;;;;;;22.40;56.30;;;;;;515544;230;1288;-73
2021/07/05 06:40:14;;;;;;;;;;;22.40;56.40;;;;;;515590;231;1016;-73
2021/07/05 06:42:15;;;;;;;;;;;22.40;56.30;;;;;;515388;230;1088;-73
2021/07/05 06:44:18;;;;;;;;;;;22.50;56.20;;;;;;515508;230;1138;-73
2021/07/05 06:46:18;;;;;;;;;;;22.40;56.10;;;;;;515457;231;2180;-73
2021/07/05 06:48:19;;;;;;;;;;;22.50;56.10;;;;;;515612;231;1154;-73
2021/07/05 06:50:21;;;;;;;;;;;22.50;56.20;;;;;;515447;230;1147;-73
2021/07/05 06:52:22;;;;;;;;;;;22.40;56.20;;;;;;515666;230;1121;-73
2021/07/05 06:54:23;;;;;;;;;;;22.40;56.10;;;;;;515514;230;1106;-73
2021/07/05 06:56:25;;;;;;;;;;;22.50;56.00;;;;;;515647;230;1136;-73
2021/07/05 06:58:26;;;;;;;;;;;22.50;55.90;;;;;;515469;231;1106;-73
2021/07/05 07:00:27;;;;;;;;;;;22.60;55.80;;;;;;515313;230;1254;-73
2021/07/05 07:02:29;;;;;;;;;;;22.60;55.80;;;;;;515328;231;1110;-73
2021/07/05 07:04:30;;;;;;;;;;;22.50;55.80;;;;;;515150;230;1076;-73
2021/07/05 07:06:31;;;;;;;;;;;22.50;55.80;;;;;;515106;231;2125;-73
2021/07/05 07:08:33;;;;;;;;;;;22.50;55.80;;;;;;515146;231;1018;-73
2021/07/05 07:10:34;;;;;;;;;;;22.50;55.90;;;;;;515297;230;1044;-73
2021/07/05 07:12:36;;;;;;;;;;;22.50;55.90;;;;;;515167;230;1057;-73
2021/07/05 07:14:37;;;;;;;;;;;22.50;56.00;;;;;;515310;231;1244;-73
2021/07/05 07:16:42;;;;;;;;;;;22.50;56.00;;;;;;515298;231;1084;-73
2021/07/05 07:18:57;;;;;;;;;;;22.40;56.00;;;;;;515118;230;1364;-73
2021/07/05 07:20:48;;;;;;;;;;;22.40;56.10;;;;;;514350;230;1470;-73
2021/07/05 07:22:49;;;;;;;;;;;22.40;56.10;;;;;;515087;231;1227;-73
2021/07/05 07:24:50;;;;;;;;;;;22.40;56.10;;;;;;515137;230;1060;-73
2021/07/05 07:26:52;;;;;;;;;;;22.30;56.10;;;;;;515184;230;2173;-73
2021/07/05 07:28:55;;;;;;;;;;;22.40;56.20;;;;;;515222;231;1068;-73
2021/07/05 07:30:54;;;;;;;;;;;22.40;56.10;;;;;;515035;230;1417;-73
2021/07/05 07:32:56;;;;;;;;;;;22.30;56.10;;;;;;515164;230;1054;-73
2021/07/05 07:34:57;;;;;;;;;;;22.40;56.00;;;;;;515251;231;1207;-73
2021/07/05 07:37:02;;;;;;;;;;;22.40;55.80;;;;;;515120;230;1026;-73
2021/07/05 07:39:04;;;;;;;;;;;22.50;55.80;;;;;;515058;230;1386;-73
2021/07/05 07:41:04;;;;;;;;;;;22.40;55.90;;;;;;515018;230;1504;-73
2021/07/05 07:43:05;;;;;;;;;;;22.40;55.80;;;;;;515140;230;1040;-73
2021/07/05 07:45:06;;;;;;;;;;;22.40;55.80;;;;;;515058;231;1331;-74
2021/07/05 07:47:08;;;;;;;;;;;22.40;55.80;;;;;;515122;231;2176;-73
2021/07/05 07:49:09;;;;;;;;;;;22.50;55.70;;;;;;515227;231;1055;-73
2021/07/05 07:51:10;;;;;;;;;;;22.50;55.60;;;;;;515321;231;1203;-73
2021/07/05 07:53:12;;;;;;;;;;;22.50;55.70;;;;;;515587;230;1006;-73
2021/07/05 07:55:13;;;;;;;;;;;22.50;55.70;;;;;;515433;230;957;-73
2021/07/05 07:57:16;;;;;;;;;;;22.50;55.50;;;;;;515215;231;1073;-73
2021/07/05 07:59:18;;;;;;;;;;;22.50;55.60;;;;;;515718;230;999;-73
2021/07/05 08:01:19;;;;;;;;;;;22.50;55.80;;;;;;515287;230;1134;-73
2021/07/05 08:03:21;;;;;;;;;;;22.40;55.60;;;;;;515299;230;1055;-73
2021/07/05 08:05:22;;;;;;;;;;;22.50;55.50;;;;;;515027;231;1039;-73
2021/07/05 08:07:23;;;;;;;;;;;22.50;55.50;;;;;;514751;231;2179;-73
2021/07/05 08:09:25;;;;;;;;;;;22.50;55.50;;;;;;514918;230;1062;-73
2021/07/05 08:11:26;;;;;;;;;;;22.50;55.50;;;;;;514917;230;1229;-73
2021/07/05 08:13:27;;;;;;;;;;;22.40;55.50;;;;;;514874;230;1101;-73
2021/07/05 08:15:28;;;;;;;;;;;22.50;55.60;;;;;;514891;230;1148;-73
2021/07/05 08:17:30;;;;;;;;;;;22.50;55.40;;;;;;514924;231;1253;-73
2021/07/05 08:19:31;;;;;;;;;;;22.40;55.50;;;;;;514816;230;1155;-73
2021/07/05 08:21:36;;;;;;;;;;;22.50;55.60;;;;;;514979;230;1428;-73
2021/07/05 08:23:34;;;;;;;;;;;22.50;55.50;;;;;;514768;230;1392;-74
2021/07/05 08:25:36;;;;;;;;;;;22.50;55.50;;;;;;514936;230;1091;-73
2021/07/05 08:27:37;;;;;;;;;;;22.50;55.50;;;;;;514938;230;2196;-73
2021/07/05 08:29:38;;;;;;;;;;;22.50;55.50;;;;;;515008;230;1124;-73
2021/07/05 08:31:40;;;;;;;;;;;22.50;55.30;;;;;;515085;230;1165;-73
2021/07/05 08:33:41;;;;;;;;;;;22.50;55.40;;;;;;515105;230;1075;-73
2021/07/05 08:35:42;;;;;;;;;;;22.50;55.40;;;;;;515019;230;1135;-73
2021/07/05 08:37:44;;;;;;;;;;;22.50;55.40;;;;;;515037;230;1130;-73
2021/07/05 08:39:45;;;;;;;;;;;22.50;55.40;;;;;;515107;230;1298;-73
2021/07/05 08:41:46;;;;;;;;;;;22.50;55.40;;;;;;514949;231;1106;-73
2021/07/05 08:43:48;;;;;;;;;;;22.50;55.40;;;;;;515095;230;1054;-73
2021/07/05 08:45:49;;;;;;;;;;;22.60;55.30;;;;;;514908;230;1182;-73
2021/07/05 08:47:50;;;;;;;;;;;22.50;55.40;;;;;;514877;230;2223;-73
2021/07/05 08:49:52;;;;;;;;;;;22.50;55.50;;;;;;515110;230;1215;-73
2021/07/05 08:51:53;;;;;;;;;;;22.50;55.50;;;;;;515560;230;1225;-73
2021/07/05 08:53:55;;;;;;;;;;;22.50;55.60;;;;;;516157;230;1119;-73
2021/07/05 08:55:55;;;;;;;;;;;22.50;55.60;;;;;;515010;231;1414;-73
2021/07/05 08:57:57;;;;;;;;;;;22.50;55.70;;;;;;514998;230;1039;-73
2021/07/05 08:59:58;;;;;;;;;;;22.50;55.70;;;;;;515103;230;1033;-73
2021/07/05 09:02:00;;;;;;;;;;;22.50;55.70;;;;;;515124;231;1208;-73
2021/07/05 09:04:01;;;;;;;;;;;22.50;55.80;;;;;;515285;230;1095;-73
2021/07/05 09:06:02;;;;;;;;;;;22.50;55.80;;;;;;515178;230;2176;-73
2021/07/05 09:08:04;;;;;;;;;;;22.50;55.80;;;;;;515317;230;1014;-73
2021/07/05 09:10:05;;;;;;;;;;;22.40;55.90;;;;;;515243;231;952;-73
2021/07/05 09:12:06;;;;;;;;;;;22.50;55.90;;;;;;515266;231;1075;-73
2021/07/05 09:14:07;;;;;;;;;;;22.40;55.90;;;;;;515165;230;999;-73
2021/07/05 09:16:09;;;;;;;;;;;22.40;55.90;;;;;;514983;230;1061;-73
2021/07/05 09:18:10;;;;;;;;;;;22.50;55.80;;;;;;515030;230;1059;-73
2021/07/05 09:20:12;;;;;;;;;;;22.50;55.80;;;;;;515164;230;1024;-73
2021/07/05 09:22:13;;;;;;;;;;;22.40;55.80;;;;;;515157;230;1010;-73
2021/07/05 09:24:14;;;;;;;;;;;22.40;55.90;;;;;;515259;231;1362;-73
2021/07/05 09:26:15;;;;;;;;;;;22.30;56.00;;;;;;514934;230;2173;-73
2021/07/05 09:28:17;;;;;;;;;;;22.40;56.00;;;;;;515024;230;1044;-73
2021/07/05 09:30:21;;;;;;;;;;;22.30;56.00;;;;;;514882;231;1007;-73
2021/07/05 09:32:20;;;;;;;;;;;22.30;56.20;;;;;;514785;230;1384;-73
2021/07/05 09:34:21;;;;;;;;;;;22.30;55.90;;;;;;515042;230;1054;-73
2021/07/05 09:36:22;;;;;;;;;;;22.50;55.60;;;;;;515108;230;1046;-73
2021/07/05 09:38:24;;;;;;;;;;;22.40;55.70;;;;;;515088;230;1035;-73
2021/07/05 09:40:25;;;;;;;;;;;22.40;55.70;;;;;;515028;230;1028;-73
2021/07/05 09:42:26;;;;;;;;;;;22.40;55.70;;;;;;515008;230;1116;-73
2021/07/05 09:44:28;;;;;;;;;;;22.40;55.80;;;;;;515153;230;1416;-73
2021/07/05 09:46:29;;;;;;;;;;;22.40;55.90;;;;;;515099;230;2188;-73
2021/07/05 09:48:30;;;;;;;;;;;22.40;55.90;;;;;;515137;230;1046;-73
2021/07/05 09:50:32;;;;;;;;;;;22.40;55.70;;;;;;514868;230;1082;-73
2021/07/05 09:52:33;;;;;;;;;;;22.50;55.70;;;;;;514946;230;1093;-73
2021/07/05 09:54:34;;;;;;;;;;;22.50;55.60;;;;;;514916;230;1118;-73
2021/07/05 09:56:36;;;;;;;;;;;22.50;55.60;;;;;;514670;231;1083;-73
2021/07/05 09:58:37;;;;;;;;;;;22.50;55.50;;;;;;514936;230;1048;-73
2021/07/05 10:00:38;;;;;;;;;;;22.50;55.70;;;;;;515109;230;1065;-73
2021/07/05 10:02:40;;;;;;;;;;;22.50;55.70;;;;;;515127;230;1343;-73
2021/07/05 10:04:44;;;;;;;;;;;22.50;55.60;;;;;;516076;230;836;-73
2021/07/05 10:06:42;;;;;;;;;;;22.40;55.70;;;;;;515587;230;2184;-73
2021/07/05 10:08:44;;;;;;;;;;;22.40;55.80;;;;;;515409;231;1075;-73
2021/07/05 10:10:45;;;;;;;;;;;22.40;55.80;;;;;;515624;231;1290;-73
2021/07/05 10:12:46;;;;;;;;;;;22.40;55.90;;;;;;516177;230;1096;-73
2021/07/05 10:14:48;;;;;;;;;;;22.40;56.00;;;;;;516180;230;1022;-72
2021/07/05 10:16:49;;;;;;;;;;;22.40;55.80;;;;;;515406;231;1083;-73
2021/07/05 10:18:54;;;;;;;;;;;22.40;55.70;;;;;;515831;230;768;-73
2021/07/05 10:20:52;;;;;;;;;;;22.40;55.90;;;;;;515526;230;1389;-73
2021/07/05 10:22:53;;;;;;;;;;;22.40;55.80;;;;;;515753;230;735;-73
2021/07/05 10:24:54;;;;;;;;;;;22.50;55.70;;;;;;515165;231;808;-73
2021/07/05 10:26:55;;;;;;;;;;;22.40;55.80;;;;;;515395;230;2176;-73
2021/07/05 10:28:57;;;;;;;;;;;22.50;55.70;;;;;;514983;231;998;-73
2021/07/05 10:30:58;;;;;;;;;;;22.40;55.60;;;;;;515427;230;867;-73
2021/07/05 10:32:59;;;;;;;;;;;22.50;55.70;;;;;;515081;231;1196;-73
2021/07/05 10:35:02;;;;;;;;;;;22.40;55.70;;;;;;515655;230;909;-73
2021/07/05 10:37:04;;;;;;;;;;;22.50;55.60;;;;;;515708;230;792;-73
2021/07/05 10:39:05;;;;;;;;;;;22.60;55.40;;;;;;515673;230;740;-73
2021/07/05 10:41:06;;;;;;;;;;;22.60;55.40;;;;;;515199;231;761;-73
2021/07/05 10:43:08;;;;;;;;;;;22.60;55.40;;;;;;515717;230;740;-73
2021/07/05 10:45:09;;;;;;;;;;;22.50;55.40;;;;;;515602;230;804;-73
2021/07/05 10:47:10;;;;;;;;;;;22.60;55.50;;;;;;515349;230;2177;-73
2021/07/05 10:49:11;;;;;;;;;;;22.60;55.30;;;;;;515078;231;783;-73
2021/07/05 10:51:14;;;;;;;;;;;22.60;55.30;;;;;;515081;231;764;-73
2021/07/05 10:53:14;;;;;;;;;;;22.70;55.30;;;;;;515052;230;1332;-73
2021/07/05 10:55:15;;;;;;;;;;;22.60;55.20;;;;;;515222;231;868;-73
2021/07/05 10:57:17;;;;;;;;;;;22.60;55.40;;;;;;515831;230;1088;-73
2021/07/05 10:59:18;;;;;;;;;;;22.50;55.50;;;;;;515907;230;826;-73
2021/07/05 11:01:19;;;;;;;;;;;22.50;55.50;;;;;;515507;230;1414;-73
2021/07/05 11:03:21;;;;;;;;;;;22.60;55.60;;;;;;514681;231;1052;-73
2021/07/05 11:05:22;;;;;;;;;;;22.60;55.70;;;;;;514975;231;852;-73
2021/07/05 11:07:24;;;;;;;;;;;22.50;55.60;;;;;;515418;230;2172;-73
2021/07/05 11:09:25;;;;;;;;;;;22.60;55.80;;;;;;515599;230;771;-73
2021/07/05 11:11:27;;;;;;;;;;;22.50;55.80;;;;;;515296;231;1499;-73
2021/07/05 11:13:28;;;;;;;;;;;22.50;55.80;;;;;;515321;231;971;-73
2021/07/05 11:15:29;;;;;;;;;;;22.50;56.10;;;;;;515920;230;621;-73
2021/07/05 11:17:31;;;;;;;;;;;22.50;56.10;;;;;;515762;230;1100;-73
2021/07/05 11:19:32;;;;;;;;;;;22.40;56.00;;;;;;515978;230;774;-73
2021/07/05 11:21:33;;;;;;;;;;;22.40;56.10;;;;;;515241;231;1435;-73
2021/07/05 11:23:35;;;;;;;;;;;22.40;56.20;;;;;;515819;230;866;-73
2021/07/05 11:25:36;;;;;;;;;;;22.40;56.20;;;;;;515325;231;847;-73
2021/07/05 11:27:37;;;;;;;;;;;22.40;56.20;;;;;;515517;230;2188;-73
2021/07/05 11:29:39;;;;;;;;;;;22.30;56.30;;;;;;515077;231;775;-73
2021/07/05 11:31:40;;;;;;;;;;;22.30;56.40;;;;;;515374;230;820;-73
2021/07/05 11:33:41;;;;;;;;;;;22.30;56.40;;;;;;515437;230;1073;-73
2021/07/05 11:35:43;;;;;;;;;;;22.30;56.40;;;;;;515094;230;1043;-73
2021/07/05 11:37:44;;;;;;;;;;;22.50;56.00;;;;;;515052;231;1026;-73
2021/07/05 11:39:46;;;;;;;;;;;22.40;56.20;;;;;;515114;230;1188;-73
2021/07/05 11:41:47;;;;;;;;;;;22.40;56.30;;;;;;514971;230;1850;-73
2021/07/05 11:43:49;;;;;;;;;;;22.40;56.10;;;;;;514899;231;1131;-73
2021/07/05 11:45:50;;;;;;;;;;;22.50;56.00;;;;;;514921;231;1270;-73
2021/07/05 11:47:51;;;;;;;;;;;22.50;56.10;;;;;;515082;230;2177;-73
2021/07/05 11:49:52;;;;;;;;;;;22.50;55.90;;;;;;515135;230;1151;-73
2021/07/05 11:51:56;;;;;;;;;;;22.50;55.90;;;;;;515220;230;1049;-73
2021/07/05 11:53:56;;;;;;;;;;;22.50;55.90;;;;;;514939;231;1343;-73
2021/07/05 11:55:58;;;;;;;;;;;22.50;55.80;;;;;;515066;230;1013;-73
2021/07/05 11:57:59;;;;;;;;;;;22.50;55.80;;;;;;515123;230;1097;-73
2021/07/05 12:00:00;;;;;;;;;;;22.50;55.80;;;;;;515185;230;1124;-73